Terminal Aerodrome Forecast
Issued by NWS Blacksburg, VA

Current Version | Previous Version | Graphics & Text | Print | Product List | Glossary On
Versions: 1 2 3 4 5 6 7 8 9 10 11 12 13 14 15 16 17 18 19 20 21 22 23 24 25 26
000
FTUS41 KRNK 281739
TAFBLF
TAF
KBLF 281739Z 2818/2918 23003KT P6SM BKN250
     FM290100 20003KT P6SM FEW050 SCT100 OVC200
     FM291300 VRB03KT 6SM -RA BKN050 OVC090=

USA.gov is the U.S. government's official web portal to all federal, state and local government web resources and services.